Time;durP1;ratioP1;P1;durP2;ratioP2;P2;SDS_P1;SDS_P2;PMS_P1;PMS_P2;Temp;Humidity;BMP_temperature;BMP_pressure;BME280_temperature;BME280_humidity;BME280_pressure;Samples;Min_cycle;Max_cycle;Signal;HPM_P1;HPM_P2
2024/02/01 00:01:49;;;;;;;43.60;10.07;;;9.40;99.90;;;;;;5076958;28;38021;-80
2024/02/01 00:04:15;;;;;;;41.27;9.43;;;9.40;99.90;;;;;;5076512;28;37680;-80
2024/02/01 00:06:41;;;;;;;36.00;9.67;;;9.40;99.90;;;;;;5079321;28;38690;-81
2024/02/01 00:09:07;;;;;;;43.33;10.23;;;9.40;99.90;;;;;;5095293;28;35183;-80
2024/02/01 00:11:34;;;;;;;40.63;10.20;;;9.40;99.90;;;;;;5082679;28;37542;-82
2024/02/01 00:14:00;;;;;;;43.67;10.80;;;9.40;99.90;;;;;;5074129;28;38925;-81
2024/02/01 00:16:26;;;;;;;39.03;9.47;;;9.40;99.90;;;;;;5078480;28;36994;-81
2024/02/01 00:18:52;;;;;;;41.27;10.07;;;9.40;99.90;;;;;;5077666;28;37458;-81
2024/02/01 00:21:18;;;;;;;48.10;10.57;;;9.40;99.90;;;;;;5079282;28;37910;-81
2024/02/01 00:23:45;;;;;;;40.23;10.27;;;9.40;99.90;;;;;;5083052;28;39733;-81
2024/02/01 00:26:11;;;;;;;36.30;9.70;;;9.40;99.90;;;;;;5082774;28;38535;-81
2024/02/01 00:28:37;;;;;;;37.60;10.87;;;9.50;99.90;;;;;;5083823;28;37179;-82
2024/02/01 00:31:04;;;;;;;42.67;10.37;;;9.50;99.90;;;;;;5081542;28;37892;-82
2024/02/01 00:33:30;;;;;;;57.43;11.07;;;9.50;99.90;;;;;;5076347;28;37514;-81
2024/02/01 00:35:56;;;;;;;44.80;12.17;;;9.50;99.90;;;;;;5076440;28;39352;-80
2024/02/01 00:38:22;;;;;;;48.77;10.80;;;9.50;99.90;;;;;;5082668;28;37823;-80
2024/02/01 00:40:48;;;;;;;36.70;11.20;;;9.60;99.90;;;;;;5077651;28;38664;-81
2024/02/01 00:43:15;;;;;;;39.37;11.10;;;9.50;99.90;;;;;;5079417;28;38916;-81
2024/02/01 00:45:41;;;;;;;43.93;10.70;;;9.60;99.90;;;;;;5074939;28;36952;-80
2024/02/01 00:48:08;;;;;;;40.77;10.93;;;9.60;99.90;;;;;;5074496;28;38148;-81
2024/02/01 00:50:34;;;;;;;42.50;11.47;;;9.60;99.90;;;;;;5078979;28;37806;-81
2024/02/01 00:53:00;;;;;;;40.30;10.93;;;9.70;99.90;;;;;;5084897;28;39898;-81
2024/02/01 00:55:26;;;;;;;34.00;10.63;;;9.70;99.90;;;;;;5078582;28;39758;-82
2024/02/01 00:57:52;;;;;;;42.27;11.10;;;9.70;99.90;;;;;;5080170;28;36759;-81
2024/02/01 01:00:19;;;;;;;42.10;11.33;;;9.80;99.90;;;;;;5080837;28;37412;-81
2024/02/01 01:02:45;;;;;;;37.30;10.07;;;9.80;99.90;;;;;;5098800;27;39553;-80
2024/02/01 01:05:11;;;;;;;41.03;10.97;;;9.80;99.90;;;;;;5081617;28;38648;-81
2024/02/01 01:07:37;;;;;;;42.93;11.10;;;9.80;99.90;;;;;;5081291;28;38100;-82
2024/02/01 01:10:04;;;;;;;42.80;11.20;;;9.80;99.90;;;;;;5086432;28;35885;-81
2024/02/01 01:12:30;;;;;;;47.40;11.97;;;9.80;99.90;;;;;;5085744;28;41007;-81
2024/02/01 01:14:56;;;;;;;40.17;11.63;;;9.80;99.90;;;;;;5082164;28;37377;-82
2024/02/01 01:17:22;;;;;;;49.43;13.07;;;9.80;99.90;;;;;;5084133;28;36500;-81
2024/02/01 01:19:50;;;;;;;42.50;10.10;;;9.80;99.90;;;;;;5087628;28;36818;-81
2024/02/01 01:22:16;;;;;;;46.63;11.93;;;9.80;99.90;;;;;;5075016;28;39201;-80
2024/02/01 01:24:42;;;;;;;48.43;11.60;;;9.90;99.90;;;;;;5083421;28;37208;-81
2024/02/01 01:27:08;;;;;;;44.33;11.63;;;9.80;99.90;;;;;;5106482;28;36765;-81
2024/02/01 01:29:34;;;;;;;54.67;12.43;;;9.80;99.90;;;;;;5080727;28;38056;-81
2024/02/01 01:32:00;;;;;;;48.80;11.00;;;9.90;99.90;;;;;;5080748;28;38953;-81
2024/02/01 01:34:27;;;;;;;47.57;10.73;;;9.90;99.90;;;;;;5077932;28;46526;-81
2024/02/01 01:36:53;;;;;;;47.23;10.50;;;9.90;99.90;;;;;;5080671;28;36851;-81
2024/02/01 01:39:19;;;;;;;43.83;10.60;;;9.90;99.90;;;;;;5078439;28;38172;-81
2024/02/01 01:41:45;;;;;;;38.00;9.67;;;10.00;99.90;;;;;;5079096;28;37710;-81
2024/02/01 01:44:13;;;;;;;48.43;11.20;;;10.00;99.90;;;;;;5079664;28;39313;-81
2024/02/01 01:46:39;;;;;;;38.13;9.47;;;10.00;99.90;;;;;;5080499;28;36398;-81
2024/02/01 01:49:07;;;;;;;51.13;10.33;;;10.00;99.90;;;;;;5080561;28;36352;-79
2024/02/01 01:51:36;;;;;;;39.67;10.27;;;10.00;99.90;;;;;;5079547;28;37203;-81
2024/02/01 01:54:05;;;;;;;39.93;10.07;;;10.00;99.90;;;;;;5075980;28;37181;-80
2024/02/01 01:56:31;;;;;;;36.50;10.23;;;9.90;99.90;;;;;;5081054;28;38416;-82
2024/02/01 01:58:58;;;;;;;39.40;9.80;;;9.90;99.90;;;;;;5078275;28;38438;-80
2024/02/01 02:04:03;;;;;;;40.23;9.93;;;9.80;99.90;;;;;;2048465;22;21170;-81
2024/02/01 02:06:29;;;;;;;42.20;10.00;;;9.80;99.90;;;;;;5102241;28;47620;-80
2024/02/01 02:08:55;;;;;;;37.40;10.13;;;9.80;99.90;;;;;;5100671;28;37942;-80
2024/02/01 02:11:23;;;;;;;34.83;9.80;;;9.80;99.90;;;;;;5099546;28;38146;-81
2024/02/01 02:13:51;;;;;;;43.47;9.43;;;9.80;99.90;;;;;;5096522;28;37522;-82
2024/02/01 02:16:17;;;;;;;44.43;10.53;;;9.90;99.90;;;;;;5116040;27;37653;-81
2024/02/01 02:18:44;;;;;;;38.37;9.67;;;9.90;99.90;;;;;;5111839;28;37676;-80
2024/02/01 02:21:18;;;;;;;34.67;9.07;;;9.90;99.90;;;;;;5097657;28;37625;-81
2024/02/01 02:23:49;;;;;;;45.47;10.20;;;9.90;99.90;;;;;;5096805;28;38168;-81
2024/02/01 02:26:16;;;;;;;40.77;9.23;;;9.90;99.90;;;;;;5098788;28;36988;-82
2024/02/01 02:28:42;;;;;;;41.90;11.57;;;9.90;99.90;;;;;;5108549;28;35994;-80
2024/02/01 02:31:09;;;;;;;42.77;10.37;;;9.90;99.90;;;;;;5102468;28;37879;-81
2024/02/01 02:33:35;;;;;;;33.67;9.00;;;9.90;99.90;;;;;;5117370;27;37778;-80
2024/02/01 02:36:01;;;;;;;43.47;9.50;;;9.90;99.90;;;;;;5101639;28;36368;-80
2024/02/01 02:38:27;;;;;;;34.50;9.10;;;9.90;99.90;;;;;;5104126;28;36354;-80
2024/02/01 02:40:54;;;;;;;29.93;8.63;;;9.80;99.90;;;;;;5101808;28;38756;-81
2024/02/01 02:43:20;;;;;;;41.03;8.90;;;9.80;99.90;;;;;;5096021;28;38470;-80
2024/02/01 02:45:46;;;;;;;35.93;7.17;;;9.70;99.90;;;;;;5095355;28;38804;-81
2024/02/01 02:48:14;;;;;;;27.27;6.73;;;9.60;99.90;;;;;;5108445;28;36232;-81
2024/02/01 02:50:40;;;;;;;34.83;6.27;;;9.50;99.90;;;;;;5098029;28;38032;-81
2024/02/01 02:53:06;;;;;;;25.83;5.60;;;9.40;99.90;;;;;;5098891;28;37902;-80
2024/02/01 02:55:33;;;;;;;27.97;6.03;;;9.40;99.90;;;;;;5095882;28;36885;-79
2024/02/01 02:58:00;;;;;;;30.67;6.03;;;9.30;99.90;;;;;;5116629;28;37455;-79
2024/02/01 03:00:26;;;;;;;21.90;4.40;;;9.30;99.90;;;;;;5088687;28;39135;-80
2024/02/01 03:02:52;;;;;;;32.80;5.47;;;9.20;99.90;;;;;;5104505;28;37518;-80
2024/02/01 03:05:18;;;;;;;26.13;4.07;;;9.20;99.90;;;;;;5101183;28;39439;-80
2024/02/01 03:07:45;;;;;;;24.37;4.20;;;9.10;99.90;;;;;;5107083;28;36442;-82
2024/02/01 03:10:13;;;;;;;29.83;4.43;;;9.00;99.90;;;;;;5099631;28;38616;-82
2024/02/01 03:12:40;;;;;;;38.93;5.07;;;9.00;99.90;;;;;;5103159;28;38342;-81
2024/02/01 03:15:08;;;;;;;26.40;4.03;;;8.90;99.90;;;;;;5102781;28;38453;-81
2024/02/01 03:17:35;;;;;;;29.17;3.87;;;8.90;99.90;;;;;;5103943;28;37313;-82
2024/02/01 03:20:01;;;;;;;27.00;4.00;;;8.80;99.90;;;;;;5098722;28;39286;-81
2024/02/01 03:22:27;;;;;;;34.83;4.00;;;8.80;99.90;;;;;;5093545;28;37118;-81
2024/02/01 03:24:59;;;;;;;25.37;4.13;;;8.70;99.90;;;;;;5101749;28;36855;-81
2024/02/01 03:27:26;;;;;;;30.65;4.15;;;8.60;99.90;;;;;;5096513;28;35855;-81
2024/02/01 03:29:52;;;;;;;30.30;4.07;;;8.60;99.90;;;;;;5099721;28;39549;-82
2024/02/01 03:32:19;;;;;;;35.63;6.57;;;8.50;99.90;;;;;;5097059;28;39998;-81
2024/02/01 03:34:45;;;;;;;26.77;4.87;;;8.50;99.90;;;;;;5102931;28;36938;-82
2024/02/01 03:37:14;;;;;;;23.80;3.83;;;8.50;99.90;;;;;;5101016;28;37500;-82
2024/02/01 03:39:41;;;;;;;20.77;4.00;;;8.40;99.90;;;;;;5099392;28;39086;-81
2024/02/01 03:42:07;;;;;;;28.00;3.77;;;8.30;99.90;;;;;;5098501;28;38847;-82
2024/02/01 03:44:39;;;;;;;25.13;4.23;;;8.30;99.90;;;;;;5098915;28;37333;-82
2024/02/01 03:47:11;;;;;;;36.63;4.20;;;8.20;99.90;;;;;;5096047;28;37747;-82
2024/02/01 03:49:40;;;;;;;28.33;3.95;;;8.20;99.90;;;;;;5097233;28;37356;-81
2024/02/01 03:52:08;;;;;;;28.40;4.33;;;8.10;99.90;;;;;;5093084;28;38723;-82
2024/02/01 03:54:37;;;;;;;29.77;5.37;;;8.00;99.90;;;;;;5081096;28;39227;-82
2024/02/01 03:57:05;;;;;;;22.40;3.50;;;7.90;99.90;;;;;;5091792;28;35616;-82
2024/02/01 03:59:32;;;;;;;30.30;5.10;;;7.80;99.90;;;;;;5098449;28;40258;-81
2024/02/01 04:02:04;;;;;;;34.67;5.03;;;7.70;99.90;;;;;;5095876;28;38611;-81
2024/02/01 04:04:31;;;;;;;23.45;4.03;;;7.60;99.90;;;;;;5096029;28;47533;-81
2024/02/01 04:06:57;;;;;;;23.37;3.47;;;7.50;99.90;;;;;;5100839;28;37117;-81
2024/02/01 04:09:26;;;;;;;25.83;3.67;;;7.50;99.90;;;;;;5097254;28;40378;-81
2024/02/01 04:11:52;;;;;;;21.97;3.67;;;7.40;99.90;;;;;;5093306;28;37479;-81
2024/02/01 04:14:18;;;;;;;21.30;2.50;;;7.30;99.90;;;;;;5091635;28;38668;-82
2024/02/01 04:16:45;;;;;;;28.13;4.33;;;7.30;99.90;;;;;;5092154;28;37363;-80
2024/02/01 04:19:12;;;;;;;23.87;3.60;;;7.20;99.90;;;;;;5090444;28;39776;-82
2024/02/01 04:21:38;;;;;;;27.13;3.83;;;7.10;99.90;;;;;;5092741;28;39674;-81
2024/02/01 04:24:05;;;;;;;25.60;3.80;;;7.10;99.90;;;;;;5093830;28;37764;-81
2024/02/01 04:26:31;;;;;;;20.60;2.83;;;7.10;99.90;;;;;;5091364;28;35600;-80
2024/02/01 04:28:57;;;;;;;28.20;3.43;;;7.00;99.90;;;;;;5088154;28;38309;-81
2024/02/01 04:31:23;;;;;;;28.87;3.70;;;7.00;99.90;;;;;;5091730;28;38598;-80
2024/02/01 04:33:54;;;;;;;26.43;4.17;;;7.00;99.90;;;;;;5085958;28;37798;-80
2024/02/01 04:36:20;;;;;;;32.23;3.90;;;7.10;99.00;;;;;;5109090;27;36056;-80
2024/02/01 04:38:49;;;;;;;29.83;4.07;;;7.10;99.90;;;;;;5090970;28;39167;-80
2024/02/01 04:41:16;;;;;;;29.47;4.07;;;7.20;99.90;;;;;;5092846;28;37394;-80
2024/02/01 04:43:43;;;;;;;22.57;3.80;;;7.20;99.90;;;;;;5098819;28;38906;-80
2024/02/01 04:46:10;;;;;;;21.70;4.50;;;7.20;99.90;;;;;;5093089;28;38252;-81
2024/02/01 04:48:36;;;;;;;27.97;3.93;;;7.10;99.90;;;;;;5095254;28;37899;-81
2024/02/01 04:51:03;;;;;;;25.80;4.50;;;7.00;99.90;;;;;;5091991;28;39344;-81
2024/02/01 04:53:29;;;;;;;27.27;3.83;;;6.90;99.90;;;;;;5097347;28;36774;-81
2024/02/01 04:55:56;;;;;;;28.57;5.53;;;6.80;99.90;;;;;;5100618;28;37794;-81
2024/02/01 04:58:22;;;;;;;26.67;4.20;;;6.80;99.90;;;;;;5093492;28;37676;-81
2024/02/01 05:00:52;;;;;;;28.97;3.73;;;6.70;99.90;;;;;;5094608;28;39242;-81
2024/02/01 05:03:19;;;;;;;31.33;4.50;;;6.70;99.90;;;;;;5103337;28;36844;-79
2024/02/01 05:05:46;;;;;;;34.47;5.30;;;6.80;99.90;;;;;;5104185;28;37703;-80
2024/02/01 05:08:15;;;;;;;39.53;4.87;;;6.80;99.90;;;;;;5109705;28;37802;-81
2024/02/01 05:10:44;;;;;;;35.13;5.33;;;6.80;99.90;;;;;;5095295;28;39879;-80
2024/02/01 05:13:13;;;;;;;33.77;4.10;;;6.80;99.90;;;;;;5102912;28;37465;-80
2024/02/01 05:15:46;;;;;;;32.47;6.80;;;6.70;99.90;;;;;;5088379;28;36347;-80
2024/02/01 05:18:12;;;;;;;;;;;6.70;99.90;;;;;;5093226;28;39046;-80
2024/02/01 05:20:38;;;;;;;34.10;3.97;;;6.80;99.90;;;;;;5090251;28;38557;-81
2024/02/01 05:23:06;;;;;;;33.90;3.60;;;6.70;99.90;;;;;;5090718;28;37417;-79
2024/02/01 05:25:32;;;;;;;33.20;4.20;;;6.80;99.90;;;;;;5095271;28;38145;-79
2024/02/01 05:27:59;;;;;;;36.00;4.73;;;6.70;99.90;;;;;;5090692;28;39957;-80
2024/02/01 05:30:25;;;;;;;29.37;4.40;;;6.70;99.90;;;;;;5088509;27;38230;-82
2024/02/01 05:32:52;;;;;;;30.27;4.13;;;6.70;99.90;;;;;;5101226;28;37057;-79
2024/02/01 05:35:33;;;;;;;25.37;4.33;;;6.60;99.90;;;;;;5101124;28;36030;-79
2024/02/01 05:38:01;;;;;;;28.33;4.00;;;6.60;99.90;;;;;;5112576;28;38118;-80
2024/02/01 05:40:28;;;;;;;24.27;3.87;;;6.60;99.90;;;;;;5099857;28;47363;-80
2024/02/01 05:42:55;;;;;;;31.17;3.90;;;6.60;99.90;;;;;;5102439;28;38001;-80
2024/02/01 05:45:21;;;;;;;30.67;4.13;;;6.70;99.90;;;;;;5106559;28;39105;-79
2024/02/01 05:47:51;;;;;;;29.27;4.00;;;6.70;99.90;;;;;;5103676;28;39345;-81
2024/02/01 05:50:19;;;;;;;34.00;4.80;;;6.70;99.90;;;;;;5097851;28;37455;-82
2024/02/01 05:52:45;;;;;;;37.17;4.63;;;6.70;99.90;;;;;;5098738;28;36946;-81
2024/02/01 05:55:13;;;;;;;24.67;3.97;;;6.70;99.90;;;;;;5097184;28;37279;-80
2024/02/01 05:57:40;;;;;;;35.13;4.00;;;6.60;99.90;;;;;;5100643;28;39897;-79
2024/02/01 06:00:10;;;;;;;32.60;4.53;;;6.70;99.90;;;;;;5155084;22;37969;-80
2024/02/01 06:02:36;;;;;;;25.70;4.23;;;6.70;99.90;;;;;;5033558;28;38058;-80
2024/02/01 06:05:04;;;;;;;30.57;4.43;;;6.70;99.90;;;;;;5029632;28;39200;-81
2024/02/01 06:07:30;;;;;;;25.00;3.73;;;6.70;99.90;;;;;;5032063;28;46961;-80
2024/02/01 06:09:56;;;;;;;28.53;4.57;;;6.60;99.90;;;;;;5034959;28;38351;-80
2024/02/01 06:12:23;;;;;;;34.57;4.47;;;6.70;99.90;;;;;;5030029;28;38272;-81
2024/02/01 06:14:49;;;;;;;30.23;4.73;;;6.70;99.90;;;;;;5029662;28;36310;-80
2024/02/01 06:17:16;;;;;;;28.13;4.90;;;6.70;99.90;;;;;;5036363;28;38831;-81
2024/02/01 06:19:43;;;;;;;29.30;4.17;;;6.70;99.30;;;;;;5043199;28;38270;-80
2024/02/01 06:22:10;;;;;;;18.07;3.30;;;6.80;96.90;;;;;;5041915;28;36995;-80
2024/02/01 06:24:37;;;;;;;21.33;4.03;;;6.80;95.00;;;;;;5034783;28;35717;-80
2024/02/01 06:27:04;;;;;;;24.03;4.33;;;6.80;90.60;;;;;;5038614;28;37948;-80
2024/02/01 06:29:30;;;;;;;28.53;4.30;;;6.80;87.70;;;;;;5054452;28;37852;-81
2024/02/01 06:31:57;;;;;;;28.57;3.43;;;6.80;88.70;;;;;;5060497;28;38242;-81
2024/02/01 06:34:38;;;;;;;31.83;4.20;;;6.80;89.50;;;;;;5086383;28;37007;-80
2024/02/01 06:37:07;;;;;;;29.17;4.73;;;6.80;86.30;;;;;;5057818;22;38797;-83
2024/02/01 06:42:13;;;;;;;23.30;3.80;;;6.70;91.10;;;;;;5001545;28;38087;-81
2024/02/01 06:44:48;;;;;;;29.00;4.57;;;6.70;91.50;;;;;;5037432;28;47828;-81
2024/02/01 06:47:23;;;;;;;31.93;4.73;;;6.70;92.00;;;;;;4996881;28;40775;-80
2024/02/01 06:50:00;;;;;;;29.67;4.20;;;6.80;90.90;;;;;;5015822;28;37692;-82
2024/02/01 06:52:35;;;;;;;38.60;5.30;;;6.90;82.90;;;;;;5043297;28;39274;-82
2024/02/01 06:55:36;;;;;;;27.63;4.27;;;6.90;86.40;;;;;;5014154;28;38061;-82
2024/02/01 06:58:03;;;;;;;28.90;4.50;;;6.90;86.80;;;;;;5023051;28;49483;-82
2024/02/01 07:00:40;;;;;;;22.03;4.10;;;6.90;87.40;;;;;;5024125;28;47881;-81
2024/02/01 07:03:21;;;;;;;29.37;4.60;;;6.90;88.30;;;;;;5045722;28;39143;-84
2024/02/01 07:06:17;;;;;;;36.60;4.63;;;6.80;91.60;;;;;;5059472;28;37920;-81
2024/02/01 07:08:52;;;;;;;25.13;3.63;;;6.80;92.10;;;;;;5073857;22;48873;-82
2024/02/01 07:11:32;;;;;;;28.77;4.00;;;6.80;81.30;;;;;;5120522;22;20048;-82
2024/02/01 07:14:15;;;;;;;23.03;3.03;;;6.80;83.30;;;;;;5057993;28;36345;-82
2024/02/01 07:17:06;;;;;;;32.97;5.07;;;6.80;85.90;;;;;;5078035;28;47554;-82
2024/02/01 07:19:53;;;;;;;29.30;4.33;;;6.80;92.60;;;;;;5054599;28;48020;-82
2024/02/01 07:22:35;;;;;;;23.60;3.73;;;6.80;93.80;;;;;;5108991;22;38486;-81
2024/02/01 07:25:33;;;;;;;22.38;2.65;;;6.80;95.90;;;;;;5090892;28;36744;-81
2024/02/01 07:58:21;;;;;;;27.98;4.43;;;6.50;99.90;;;;;;5056901;28;20052;-82
2024/02/01 08:01:13;;;;;;;35.83;6.27;;;6.50;99.90;;;;;;5054411;28;38093;-84
2024/02/01 08:04:01;;;;;;;34.00;4.50;;;6.60;99.90;;;;;;5034966;28;48134;-82
2024/02/01 08:09:19;;;;;;;34.97;4.87;;;6.60;99.90;;;;;;5076676;28;39474;-82
2024/02/01 08:11:45;;;;;;;22.60;4.67;;;6.60;99.90;;;;;;5061330;28;37074;-82
2024/02/01 08:14:27;;;;;;;23.23;4.27;;;6.60;99.90;;;;;;5076921;28;38427;-82
2024/02/01 08:16:54;;;;;;;28.70;4.25;;;6.60;99.90;;;;;;5268839;22;39935;-82
2024/02/01 08:19:20;;;;;;;41.03;5.27;;;6.60;99.90;;;;;;5240940;22;38325;-81
2024/02/01 08:24:23;;;;;;;35.30;4.47;;;6.70;99.90;;;;;;5096991;27;20044;-82
2024/02/01 08:27:14;;;;;;;33.95;5.65;;;6.60;99.90;;;;;;5101106;28;39775;-82
2024/02/01 08:29:43;;;;;;;33.43;5.50;;;6.60;99.90;;;;;;5113924;28;47530;-84
2024/02/01 08:32:19;;;;;;;32.67;4.97;;;6.50;99.90;;;;;;5091362;28;37631;-83
2024/02/01 08:34:45;;;;;;;35.47;4.33;;;6.60;99.90;;;;;;5109594;22;39637;-82
2024/02/01 08:37:12;;;;;;;29.50;4.47;;;6.60;99.90;;;;;;5102734;28;38651;-80
2024/02/01 08:39:45;;;;;;;34.40;5.30;;;6.60;99.90;;;;;;5098611;28;36797;-80
2024/02/01 08:42:12;;;;;;;24.03;5.10;;;6.60;99.90;;;;;;5093141;28;38070;-81
2024/02/01 08:44:39;;;;;;;39.73;6.30;;;6.70;99.90;;;;;;5094683;28;37783;-81
2024/02/01 08:47:07;;;;;;;32.13;5.33;;;6.80;99.90;;;;;;5110088;28;38858;-83
2024/02/01 08:49:39;;;;;;;31.27;5.53;;;6.80;99.90;;;;;;5132611;28;36964;-83
2024/02/01 08:52:13;;;;;;;35.17;5.57;;;6.90;99.90;;;;;;5110917;28;36205;-82
2024/02/01 08:54:41;;;;;;;38.90;6.50;;;7.00;99.90;;;;;;5114970;28;38912;-81
2024/02/01 08:57:13;;;;;;;31.40;5.33;;;7.10;99.90;;;;;;5102405;28;38237;-82
2024/02/01 08:59:40;;;;;;;;;;;7.20;99.90;;;;;;5106083;28;37824;-81
2024/02/01 09:04:34;;;;;;;37.90;6.20;;;7.30;99.90;;;;;;5084171;28;20041;-83
2024/02/01 09:07:00;;;;;;;30.70;4.80;;;7.30;99.90;;;;;;5087430;28;37001;-83
2024/02/01 09:09:30;;;;;;;41.33;5.10;;;7.40;99.90;;;;;;5087625;28;37799;-83
2024/02/01 09:12:00;;;;;;;46.00;6.87;;;7.40;99.80;;;;;;5085604;28;36313;-82
2024/02/01 09:14:27;;;;;;;41.03;6.23;;;7.50;97.60;;;;;;5067448;28;39890;-83
2024/02/01 09:16:53;;;;;;;41.70;5.83;;;7.50;92.10;;;;;;5093494;28;38301;-83
2024/02/01 09:19:24;;;;;;;28.50;5.37;;;7.60;92.10;;;;;;5087275;28;37154;-83
2024/02/01 09:22:14;;;;;;;31.33;5.47;;;7.60;86.20;;;;;;5090501;28;37784;-83
2024/02/01 09:25:23;;;;;;;32.63;5.00;;;7.70;73.20;;;;;;5083572;28;48261;-83
2024/02/01 09:27:55;;;;;;;38.47;5.63;;;7.70;67.00;;;;;;5159808;22;47546;-83
2024/02/01 09:30:23;;;;;;;33.70;4.53;;;7.70;71.60;;;;;;5047854;28;36745;-79
2024/02/01 09:32:51;;;;;;;33.60;5.07;;;7.80;46.80;;;;;;5060024;28;37754;-81
2024/02/01 09:35:19;;;;;;;31.93;5.27;;;7.80;41.00;;;;;;5069581;28;39225;-81
2024/02/01 09:37:52;;;;;;;25.10;4.90;;;7.80;41.10;;;;;;5085232;28;38333;-82
2024/02/01 09:40:22;;;;;;;30.33;4.20;;;7.90;36.90;;;;;;5088176;28;36187;-80
2024/02/01 09:42:49;;;;;;;30.07;4.50;;;7.90;27.10;;;;;;5089819;28;36324;-80
2024/02/01 09:45:18;;;;;;;44.57;5.57;;;7.90;30.20;;;;;;5070027;28;39125;-81
2024/02/01 09:47:46;;;;;;;32.03;4.93;;;7.90;32.00;;;;;;5081412;28;39153;-81
2024/02/01 09:50:18;;;;;;;30.83;5.03;;;7.90;28.20;;;;;;5082420;28;37556;-82
2024/02/01 09:52:46;;;;;;;30.60;5.10;;;7.90;27.50;;;;;;5066422;28;36901;-82
2024/02/01 09:55:19;;;;;;;32.67;5.37;;;7.90;29.90;;;;;;5078859;28;38039;-82
2024/02/01 09:57:47;;;;;;;32.23;5.07;;;7.90;26.30;;;;;;5062356;28;38712;-82
2024/02/01 10:00:18;;;;;;;37.90;5.27;;;8.00;23.00;;;;;;5076013;28;37036;-82
2024/02/01 10:02:46;;;;;;;32.57;5.97;;;8.00;19.50;;;;;;5060365;28;36980;-83
2024/02/01 10:05:14;;;;;;;29.30;5.03;;;8.00;24.40;;;;;;5059913;28;39544;-83
2024/02/01 10:07:40;;;;;;;37.10;5.10;;;8.10;18.40;;;;;;5061558;28;38244;-83
2024/02/01 10:10:06;;;;;;;30.47;4.87;;;8.00;18.00;;;;;;5072659;28;38155;-82
2024/02/01 10:12:34;;;;;;;27.20;6.03;;;8.10;15.50;;;;;;5086231;28;36571;-82
2024/02/01 10:15:12;;;;;;;35.73;4.37;;;8.10;16.10;;;;;;5073242;28;38913;-82
2024/02/01 10:17:45;;;;;;;34.77;4.63;;;8.10;21.00;;;;;;5088110;28;47349;-82
2024/02/01 10:20:38;;;;;;;35.83;4.83;;;8.10;5.70;;;;;;5068482;28;37369;-82
2024/02/01 10:23:09;;;;;;;28.02;4.47;;;8.20;13.50;;;;;;5065916;28;37408;-82
2024/02/01 10:25:39;;;;;;;24.33;4.87;;;8.20;17.60;;;;;;5079442;28;38059;-83
2024/02/01 10:28:11;;;;;;;33.03;4.83;;;8.20;6.50;;;;;;5067954;28;37545;-82
2024/02/01 10:30:43;;;;;;;27.73;4.47;;;8.20;10.80;;;;;;5071173;28;38193;-82
2024/02/01 10:33:10;;;;;;;32.17;4.50;;;8.20;7.10;;;;;;5068817;28;37601;-82
2024/02/01 10:35:37;;;;;;;34.90;4.27;;;8.20;5.70;;;;;;5066624;28;38819;-82
2024/02/01 10:38:13;;;;;;;29.43;4.87;;;8.40;4.60;;;;;;5088518;28;37688;-83
2024/02/01 10:41:34;;;;;;;35.00;4.97;;;8.30;5.90;;;;;;5089137;28;36951;-82
2024/02/01 10:43:45;;;;;;;33.67;4.83;;;8.40;9.80;;;;;;5067121;28;49068;-82
2024/02/01 10:46:29;;;;;;;33.17;4.57;;;8.40;13.30;;;;;;5086396;28;37829;-82
2024/02/01 10:49:17;;;;;;;30.47;5.07;;;8.40;12.70;;;;;;5088630;28;37338;-82
2024/02/01 10:51:48;;;;;;;24.80;4.03;;;8.40;12.80;;;;;;5073990;28;47608;-81
2024/02/01 10:54:22;;;;;;;28.40;5.17;;;8.40;11.20;;;;;;5071833;28;36415;-82
2024/02/01 10:56:48;;;;;;;29.03;4.67;;;8.50;4.60;;;;;;5105289;28;40999;-82
2024/02/01 10:59:17;;;;;;;31.13;5.33;;;8.50;3.10;;;;;;5074183;28;38830;-83
2024/02/01 11:01:48;;;;;;;26.00;4.10;;;8.50;1.30;;;;;;5091855;28;37160;-82
2024/02/01 11:04:14;;;;;;;32.83;4.73;;;8.60;1.00;;;;;;5089881;28;36156;-83
2024/02/01 11:06:48;;;;;;;29.93;5.17;;;8.60;1.00;;;;;;5096889;27;37599;-83
2024/02/01 11:09:25;;;;;;;27.27;4.37;;;8.70;1.00;;;;;;5085755;28;37191;-83
2024/02/01 11:11:56;;;;;;;35.30;4.73;;;8.80;1.00;;;;;;5068273;28;36914;-83
2024/02/01 11:14:29;;;;;;;33.50;4.43;;;8.90;1.00;;;;;;5073611;28;39212;-83
2024/02/01 11:16:57;;;;;;;;;;;8.80;1.00;;;;;;5105965;28;39468;-83
2024/02/01 11:19:55;;;;;;;33.13;5.43;;;8.90;1.00;;;;;;5101718;27;40037;-83
2024/02/01 11:22:22;;;;;;;30.73;4.87;;;8.90;1.00;;;;;;5078200;28;39252;-82
2024/02/01 11:24:48;;;;;;;30.97;5.40;;;8.90;1.00;;;;;;5077630;28;37748;-83
2024/02/01 11:27:36;;;;;;;23.50;4.80;;;8.90;1.00;;;;;;5078341;28;37648;-83
2024/02/01 11:30:25;;;;;;;25.90;5.30;;;9.00;1.00;;;;;;5079636;28;38878;-83
2024/02/01 11:35:50;;;;;;;24.73;4.07;;;9.00;1.00;;;;;;6036781;22;20044;-81
2024/02/01 11:42:42;;;;;;;23.27;4.53;;;9.20;1.00;;;;;;5057733;28;40243;-82
2024/02/01 11:45:54;;;;;;;22.63;4.67;;;9.30;1.00;;;;;;5057159;28;39300;-80
2024/02/01 11:48:34;;;;;;;22.73;4.57;;;9.30;1.00;;;;;;4973143;28;36614;-81
2024/02/01 11:51:01;;;;;;;26.93;4.33;;;9.30;1.00;;;;;;4974439;28;37936;-81
2024/02/01 11:53:28;;;;;;;28.13;4.57;;;9.30;1.00;;;;;;4973608;28;37030;-82
2024/02/01 11:55:57;;;;;;;25.67;4.10;;;9.40;1.00;;;;;;5006335;28;38338;-83
2024/02/01 11:58:36;;;;;;;24.93;4.87;;;9.40;1.00;;;;;;4976387;28;37370;-81
2024/02/01 12:01:45;;;;;;;36.43;5.93;;;9.40;1.00;;;;;;5010798;28;39330;-82
2024/02/01 12:04:20;;;;;;;27.40;4.90;;;9.40;1.00;;;;;;4972765;28;50373;-82
2024/02/01 12:07:08;;;;;;;20.45;4.20;;;9.50;1.00;;;;;;4972847;28;38399;-83
2024/02/01 12:09:47;;;;;;;25.63;4.90;;;9.50;1.00;;;;;;4986928;28;48788;-82
2024/02/01 12:12:31;;;;;;;31.80;4.10;;;9.50;1.00;;;;;;4994669;28;39321;-81
2024/02/01 12:15:23;;;;;;;21.57;3.67;;;9.50;1.00;;;;;;5001912;28;38572;-81
2024/02/01 12:18:08;;;;;;;29.73;5.30;;;9.60;1.00;;;;;;5011789;28;38530;-81
2024/02/01 12:20:42;;;;;;;32.97;5.70;;;9.70;1.00;;;;;;4977841;28;48698;-82
2024/02/01 12:23:18;;;;;;;24.60;4.22;;;9.70;1.00;;;;;;4972734;28;38508;-82
2024/02/01 12:25:47;;;;;;;24.00;4.47;;;9.70;1.00;;;;;;5064011;22;38626;-79
2024/02/01 12:28:14;;;;;;;28.57;4.13;;;9.70;1.00;;;;;;5089482;28;36730;-79
2024/02/01 12:30:44;;;;;;;21.63;3.83;;;9.80;1.00;;;;;;5091905;28;36937;-79
2024/02/01 12:33:14;;;;;;;29.27;4.90;;;9.70;1.00;;;;;;5085720;27;39246;-80
2024/02/01 12:35:44;;;;;;;28.60;4.00;;;9.80;1.00;;;;;;5085238;28;39609;-80
2024/02/01 12:38:14;;;;;;;29.40;5.07;;;9.70;1.00;;;;;;5120374;27;36639;-82
2024/02/01 12:40:41;;;;;;;21.57;5.00;;;9.80;1.00;;;;;;5114940;28;36189;-80
2024/02/01 12:43:39;;;;;;;43.13;5.30;;;10.00;1.00;;;;;;5123713;28;38084;-81
2024/02/01 12:46:05;;;;;;;25.73;4.67;;;10.20;1.00;;;;;;5091712;28;37725;-79
2024/02/01 12:48:40;;;;;;;23.70;4.20;;;10.20;1.00;;;;;;5120865;28;36563;-81
2024/02/01 12:51:09;;;;;;;23.97;4.50;;;10.10;1.00;;;;;;5114207;27;36718;-80
2024/02/01 12:53:35;;;;;;;26.60;4.27;;;10.10;1.00;;;;;;5135426;27;39405;-80
2024/02/01 12:56:09;;;;;;;27.33;4.00;;;10.00;1.00;;;;;;5102506;28;37057;-81
2024/02/01 12:58:39;;;;;;;27.43;4.33;;;10.10;1.00;;;;;;5110427;28;47685;-81
2024/02/01 13:01:08;;;;;;;27.33;4.27;;;10.10;1.00;;;;;;5092144;28;37460;-81
2024/02/01 13:03:41;;;;;;;25.20;5.03;;;10.20;1.00;;;;;;5109832;28;38514;-80
2024/02/01 13:06:13;;;;;;;28.33;5.53;;;10.20;1.00;;;;;;5093544;28;37976;-81
2024/02/01 13:08:40;;;;;;;25.00;3.83;;;10.20;1.00;;;;;;5104383;28;36750;-80
2024/02/01 13:11:07;;;;;;;27.63;5.03;;;10.10;1.00;;;;;;5123495;28;36097;-80
2024/02/01 13:13:35;;;;;;;29.73;3.90;;;10.00;1.00;;;;;;5108783;28;37672;-81
2024/02/01 13:16:04;;;;;;;25.50;5.27;;;9.90;1.00;;;;;;5112962;28;37296;-81
2024/02/01 13:18:31;;;;;;;25.27;4.17;;;9.70;1.00;;;;;;5107882;28;47332;-81
2024/02/01 13:20:57;;;;;;;29.60;4.30;;;9.50;1.00;;;;;;5111481;28;35662;-82
2024/02/01 13:23:23;;;;;;;20.23;4.73;;;9.50;1.00;;;;;;5110493;28;39879;-82
2024/02/01 13:25:52;;;;;;;23.13;4.27;;;9.40;1.00;;;;;;5126980;28;37415;-81
2024/02/01 13:28:18;;;;;;;21.83;4.33;;;9.40;1.00;;;;;;5105310;28;38656;-82
2024/02/01 13:30:44;;;;;;;24.97;4.63;;;9.50;1.00;;;;;;5121924;28;36973;-82
2024/02/01 13:33:11;;;;;;;24.73;4.10;;;9.30;1.00;;;;;;5107574;28;40078;-82
2024/02/01 13:35:38;;;;;;;20.77;3.67;;;9.20;1.00;;;;;;5125663;28;36993;-81
2024/02/01 13:38:11;;;;;;;24.83;4.23;;;9.30;1.00;;;;;;5123421;27;36718;-82
2024/02/01 13:40:43;;;;;;;26.83;5.87;;;9.30;1.00;;;;;;5126033;28;35768;-81
2024/02/01 13:43:12;;;;;;;25.00;4.78;;;9.30;1.00;;;;;;5123123;27;38048;-82
2024/02/01 13:45:39;;;;;;;20.00;4.37;;;9.20;1.00;;;;;;5104315;28;38887;-82
2024/02/01 13:48:06;;;;;;;35.17;4.63;;;9.00;1.00;;;;;;5081035;28;36498;-82
2024/02/01 13:50:32;;;;;;;25.87;4.13;;;9.00;1.00;;;;;;5099805;28;36001;-82
2024/02/01 13:53:00;;;;;;;22.97;4.60;;;8.90;1.00;;;;;;5122275;28;37569;-82
2024/02/01 13:55:29;;;;;;;25.60;4.00;;;8.80;1.00;;;;;;5100799;28;20083;-81